Station Historical Data
Daily Summary for February 4, 2018 Units:  Metric    English   Both
« Previous Day
Next Day »
Daily Weekly Monthly Yearly Custom
  High: Low: Average:
Temperature: 3.7 °C -6.4 °C 1 °C
Dew Point: 0.5 °C -11.1 °C -2.4 °C
Humidity: 90% 37% 80%
Wind Speed: 30.6km/h 0km/h 9km/h
Wind Gust: 37km/h - -
Wind- - SW
Pressure: 1013.8 hPa 1006.3 hPa -
Precipitation: 0 mm    
Historical Graphs
 
 
Tabular Data for February 4, 2018
Time Temperature Dew Point Pressure Wind Wind Speed Wind Gust Humidity Rainfall Rate (Hourly)
00:04 0.7 °C -9.9 °C 1013.8 hPa SSW 11.3 km/h 25.7 km/h 45% 0 mm
00:09 0.8 °C -10.1 °C 1013.4 hPa SSW 9.7 km/h 24.1 km/h 44% 0 mm
00:14 0.9 °C -10.3 °C 1013.4 hPa SSW 9.7 km/h 24.1 km/h 43% 0 mm
00:19 0.9 °C -9.9 °C 1013.4 hPa SSW 9.7 km/h 20.9 km/h 44% 0 mm
00:24 0.9 °C -9.7 °C 1013.4 hPa SSW 8 km/h 17.7 km/h 45% 0 mm
00:29 0.8 °C -9.5 °C 1013.4 hPa SW 12.9 km/h 16.1 km/h 46% 0 mm
00:34 0.9 °C -9.7 °C 1013.1 hPa SSW 16.1 km/h 19.3 km/h 45% 0 mm
00:39 1 °C -9.6 °C 1013.1 hPa South 3.2 km/h 17.7 km/h 45% 0 mm
00:44 1.1 °C -9.8 °C 1013.1 hPa SW 11.3 km/h 16.1 km/h 44% 0 mm
00:49 1.3 °C -10.2 °C 1012.8 hPa West 12.9 km/h 20.9 km/h 42% 0 mm
00:54 1.4 °C -10.2 °C 1012.8 hPa SW 12.9 km/h 17.7 km/h 42% 0 mm
00:59 1.4 °C -10.1 °C 1012.8 hPa SSW 9.7 km/h 17.7 km/h 42% 0 mm
01:05 1.7 °C -10.2 °C 1012.8 hPa SSW 11.3 km/h 33.8 km/h 41% 0 mm
01:10 2 °C -10.2 °C 1012.8 hPa South 14.5 km/h 29 km/h 40% 0 mm
01:15 2.1 °C -10.5 °C 1012.8 hPa WSW 25.7 km/h 33.8 km/h 39% 0 mm
01:20 2.1 °C -10.8 °C 1012.4 hPa WSW 11.3 km/h 32.2 km/h 38% 0 mm
01:25 2.1 °C -10.8 °C 1012.4 hPa South 24.1 km/h 35.4 km/h 38% 0 mm
01:30 2.2 °C -11.1 °C 1012.4 hPa South 12.9 km/h 30.6 km/h 37% 0 mm
01:35 2.2 °C -11.1 °C 1012.4 hPa WSW 20.9 km/h 32.2 km/h 37% 0 mm
01:40 2.2 °C -11.1 °C 1012.4 hPa South 9.7 km/h 32.2 km/h 37% 0 mm
01:45 2.2 °C -11.1 °C 1012.4 hPa SSW 16.1 km/h 32.2 km/h 37% 0 mm
01:50 2.2 °C -11.1 °C 1012.1 hPa SSW 14.5 km/h 35.4 km/h 37% 0 mm
01:55 2.2 °C -11.1 °C 1012.4 hPa SSW 12.9 km/h 35.4 km/h 37% 0 mm
02:00 2.2 °C -11 °C 1012.1 hPa SSW 12.9 km/h 24.1 km/h 37% 0 mm
02:05 2.2 °C -11 °C 1012.1 hPa SSW 12.9 km/h 29 km/h 37% 0 mm
02:10 2.2 °C -11 °C 1012.1 hPa SSW 12.9 km/h 29 km/h 37% 0 mm
02:15 2.2 °C -10.3 °C 1012.1 hPa SSW 6.4 km/h 20.9 km/h 39% 0 mm
02:20 2.3 °C -10.3 °C 1012.1 hPa SSW 8 km/h 24.1 km/h 39% 0 mm
02:25 2.3 °C -9.6 °C 1012.1 hPa SW 19.3 km/h 22.5 km/h 41% 0 mm
02:30 2.3 °C -9.3 °C 1012.4 hPa WSW 14.5 km/h 24.1 km/h 42% 0 mm
02:35 2.4 °C -9.2 °C 1012.1 hPa SSW 12.9 km/h 24.1 km/h 42% 0 mm
02:40 2.4 °C -8.6 °C 1012.4 hPa SW 9.7 km/h 22.5 km/h 44% 0 mm
02:45 2.5 °C -8.8 °C 1012.1 hPa SSE 12.9 km/h 27.4 km/h 43% 0 mm
02:50 2.6 °C -8.7 °C 1012.1 hPa SSW 14.5 km/h 29 km/h 43% 0 mm
02:55 2.6 °C -8.4 °C 1012.1 hPa SSW 12.9 km/h 29 km/h 44% 0 mm
03:00 2.7 °C -8.1 °C 1012.1 hPa SSW 11.3 km/h 33.8 km/h 45% 0 mm
03:05 2.7 °C -8.1 °C 1012.1 hPa SSW 12.9 km/h 33.8 km/h 45% 0 mm
03:10 2.8 °C -7.9 °C 1011.7 hPa SSW 14.5 km/h 29 km/h 45% 0 mm
03:15 2.9 °C -7.9 °C 1012.1 hPa SW 14.5 km/h 24.1 km/h 45% 0 mm
03:20 2.9 °C -7.6 °C 1012.1 hPa SW 11.3 km/h 30.6 km/h 46% 0 mm
03:25 3 °C -7.2 °C 1012.1 hPa SW 12.9 km/h 30.6 km/h 47% 0 mm
03:30 3.1 °C -6.9 °C 1011.7 hPa SSW 12.9 km/h 25.7 km/h 48% 0 mm
03:35 3.1 °C -6.8 °C 1012.1 hPa West 9.7 km/h 25.7 km/h 48% 0 mm
03:40 3.2 °C -6.6 °C 1012.1 hPa SW 9.7 km/h 22.5 km/h 49% 0 mm
03:45 3.2 °C -5.9 °C 1011.7 hPa SW 14.5 km/h 30.6 km/h 51% 0 mm
03:50 3.4 °C -5.3 °C 1012.1 hPa SW 17.7 km/h 33.8 km/h 53% 0 mm
03:55 3.6 °C -5.2 °C 1012.1 hPa SW 16.1 km/h 33.8 km/h 53% 0 mm
04:00 3.6 °C -4.8 °C 1012.1 hPa SW 16.1 km/h 32.2 km/h 54% 0 mm
04:05 3.7 °C -4.6 °C 1012.1 hPa SW 9.7 km/h 33.8 km/h 55% 0 mm
04:14 3.3 °C -2.8 °C 1012.4 hPa SW 14.5 km/h 37 km/h 64% 0 mm
04:20 3 °C -2.7 °C 1012.4 hPa SW 30.6 km/h 37 km/h 66% 0 mm
04:25 2.5 °C -2.2 °C 1012.4 hPa SW 16.1 km/h 37 km/h 71% 0 mm
04:30 2.1 °C -2.1 °C 1012.4 hPa SW 17.7 km/h 37 km/h 74% 0 mm
04:35 1.7 °C -1.9 °C 1012.4 hPa South 9.7 km/h 30.6 km/h 77% 0 mm
04:40 1.3 °C -2.1 °C 1012.4 hPa SW 12.9 km/h 32.2 km/h 78% 0 mm
04:45 1.1 °C -1.9 °C 1012.4 hPa WNW 17.7 km/h 25.7 km/h 80% 0 mm
04:50 1 °C -1.9 °C 1012.1 hPa West 20.9 km/h 27.4 km/h 81% 0 mm
04:55 0.9 °C -1.8 °C 1012.1 hPa West 6.4 km/h 32.2 km/h 82% 0 mm
05:00 0.9 °C -1.6 °C 1012.1 hPa SW 16.1 km/h 32.2 km/h 83% 0 mm
05:05 0.9 °C -1.4 °C 1012.1 hPa SW 14.5 km/h 30.6 km/h 84% 0 mm
05:10 0.9 °C -1.5 °C 1012.4 hPa SW 16.1 km/h 30.6 km/h 84% 0 mm
05:15 0.8 °C -1.4 °C 1012.4 hPa SW 14.5 km/h 32.2 km/h 85% 0 mm
05:20 0.8 °C -1.4 °C 1012.4 hPa SW 14.5 km/h 32.2 km/h 85% 0 mm
05:25 0.8 °C -1.2 °C 1012.4 hPa SW 14.5 km/h 29 km/h 86% 0 mm
05:29 0.8 °C -1.2 °C 1012.4 hPa SW 16.1 km/h 24.1 km/h 86% 0 mm
05:34 0.8 °C -1.3 °C 1012.1 hPa WSW 8 km/h 24.1 km/h 86% 0 mm
05:40 0.8 °C -1.1 °C 1012.1 hPa SSW 12.9 km/h 27.4 km/h 87% 0 mm
05:45 0.8 °C -1.1 °C 1012.1 hPa WSW 11.3 km/h 24.1 km/h 87% 0 mm
05:50 0.8 °C -1.1 °C 1012.1 hPa WSW 12.9 km/h 17.7 km/h 87% 0 mm
05:55 0.8 °C -1.1 °C 1012.1 hPa SW 8 km/h 20.9 km/h 87% 0 mm
05:59 0.8 °C -1.1 °C 1012.1 hPa SW 11.3 km/h 20.9 km/h 87% 0 mm
06:05 0.8 °C -1.1 °C 1012.1 hPa SW 9.7 km/h 20.9 km/h 87% 0.25 mm
06:10 0.8 °C -1.1 °C 1012.1 hPa SW 11.3 km/h 22.5 km/h 87% 0.25 mm
06:15 0.8 °C -0.9 °C 1012.1 hPa SW 9.7 km/h 22.5 km/h 88% 0.25 mm
06:20 0.8 °C -0.9 °C 1012.1 hPa SW 8 km/h 17.7 km/h 88% 0.25 mm
06:25 0.8 °C -0.9 °C 1012.1 hPa SSW 8 km/h 17.7 km/h 88% 0.25 mm
06:30 0.8 °C -0.9 °C 1012.1 hPa SW 6.4 km/h 17.7 km/h 88% 0.25 mm
06:34 0.8 °C -0.9 °C 1012.1 hPa SSW 8 km/h 17.7 km/h 88% 0.25 mm
06:39 0.8 °C -0.9 °C 1011.7 hPa South 6.4 km/h 16.1 km/h 88% 0.25 mm
06:44 0.8 °C -0.9 °C 1011.7 hPa WSW 4.8 km/h 19.3 km/h 88% 0.25 mm
06:49 0.8 °C -0.9 °C 1012.1 hPa South 4.8 km/h 22.5 km/h 88% 0.25 mm
06:55 0.8 °C -0.9 °C 1012.1 hPa SW 11.3 km/h 24.1 km/h 88% 0.25 mm
07:00 0.8 °C -0.9 °C 1011.7 hPa SSW 9.7 km/h 25.7 km/h 88% 0.25 mm
07:04 0.8 °C -0.9 °C 1012.1 hPa SSW 9.7 km/h 25.7 km/h 88% 0 mm
07:10 0.8 °C -1 °C 1012.1 hPa SSW 9.7 km/h 17.7 km/h 88% 0 mm
07:15 0.8 °C -1 °C 1011.7 hPa SSW 9.7 km/h 19.3 km/h 88% 0 mm
07:20 0.8 °C -1 °C 1012.1 hPa SSW 9.7 km/h 22.5 km/h 88% 0 mm
07:25 0.8 °C -0.9 °C 1012.1 hPa WSW 6.4 km/h 20.9 km/h 88% 0 mm
07:30 0.8 °C -1 °C 1012.1 hPa WSW 4.8 km/h 24.1 km/h 88% 0 mm
07:34 0.8 °C -1 °C 1011.7 hPa SSW 8 km/h 24.1 km/h 88% 0 mm
07:39 0.8 °C -0.8 °C 1011.7 hPa SSW 9.7 km/h 20.9 km/h 89% 0 mm
07:44 0.8 °C -0.8 °C 1011.7 hPa SSW 12.9 km/h 16.1 km/h 89% 0 mm
07:49 0.8 °C -0.8 °C 1011.7 hPa SSW 6.4 km/h 16.1 km/h 89% 0 mm
07:54 0.8 °C -0.8 °C 1011.7 hPa SW 6.4 km/h 22.5 km/h 89% 0 mm
07:59 0.9 °C -0.7 °C 1011.7 hPa SSW 8 km/h 17.7 km/h 89% 0 mm
08:05 0.9 °C -0.7 °C 1011.7 hPa SSW 8 km/h 19.3 km/h 89% 0 mm
08:09 0.9 °C -0.7 °C 1011.7 hPa SSW 9.7 km/h 19.3 km/h 89% 0 mm
08:15 0.9 °C -0.7 °C 1011.7 hPa SSW 9.7 km/h 17.7 km/h 89% 0 mm
08:20 0.9 °C -0.7 °C 1011.7 hPa SW 9.7 km/h 20.9 km/h 89% 0 mm
08:25 0.9 °C -0.7 °C 1011.7 hPa SW 9.7 km/h 20.9 km/h 89% 0 mm
08:30 0.9 °C -0.7 °C 1011.7 hPa SW 9.7 km/h 14.5 km/h 89% 0 mm
08:35 1 °C -0.6 °C 1011.7 hPa SW 6.4 km/h 16.1 km/h 89% 0 mm
08:39 1.1 °C -0.6 °C 1011.7 hPa SSW 8 km/h 16.1 km/h 89% 0 mm
08:44 1.1 °C -0.6 °C 1011.4 hPa SSW 11.3 km/h 19.3 km/h 89% 0 mm
08:49 1.1 °C -0.6 °C 1011.4 hPa South 6.4 km/h 16.1 km/h 89% 0 mm
08:54 1.1 °C -0.6 °C 1011.4 hPa South 6.4 km/h 17.7 km/h 89% 0 mm
08:59 1.1 °C -0.6 °C 1011.4 hPa SSW 8 km/h 14.5 km/h 89% 0 mm
09:04 1.1 °C -0.6 °C 1011.4 hPa SW 12.9 km/h 12.9 km/h 89% 0 mm
09:09 1.1 °C -0.6 °C 1011.4 hPa SW 4.8 km/h 14.5 km/h 89% 0 mm
09:14 1.2 °C -0.4 °C 1011.4 hPa SW 6.4 km/h 16.1 km/h 89% 0 mm
09:20 1.3 °C -0.3 °C 1011.4 hPa SSW 6.4 km/h 16.1 km/h 89% 0 mm
09:25 1.3 °C -0.3 °C 1011.4 hPa SSW 6.4 km/h 12.9 km/h 89% 0 mm
09:30 1.4 °C -0.2 °C 1011.1 hPa SW 8 km/h 16.1 km/h 89% 0 mm
09:35 1.4 °C -0.2 °C 1011.4 hPa SW 12.9 km/h 12.9 km/h 89% 0 mm
09:40 1.4 °C -0.2 °C 1011.4 hPa SSW 3.2 km/h 19.3 km/h 89% 0 mm
09:44 1.5 °C -0.1 °C 1011.1 hPa SSW 8 km/h 19.3 km/h 89% 0 mm
09:49 1.5 °C -0.1 °C 1011.1 hPa SSW 6.4 km/h 16.1 km/h 89% 0 mm
09:54 1.6 °C 0 °C 1011.1 hPa WSW 3.2 km/h 14.5 km/h 89% 0 mm
09:59 1.7 °C 0.1 °C 1011.1 hPa WSW 9.7 km/h 16.1 km/h 89% 0 mm
10:05 1.7 °C -0.1 °C 1011.1 hPa SW 12.9 km/h 17.7 km/h 88% 0 mm
10:09 1.8 °C 0 °C 1011.1 hPa SSE 8 km/h 19.3 km/h 88% 0 mm
10:14 1.8 °C 0.1 °C 1010.7 hPa SSW 8 km/h 19.3 km/h 88% 0 mm
10:19 1.9 °C 0.1 °C 1010.7 hPa SSW 8 km/h 17.7 km/h 88% 0 mm
10:25 1.9 °C 0.2 °C 1010.7 hPa SSW 8 km/h 20.9 km/h 88% 0 mm
10:30 2 °C 0.2 °C 1010.7 hPa SSW 8 km/h 20.9 km/h 88% 0 mm
10:35 2.1 °C 0.3 °C 1010.7 hPa SW 8 km/h 14.5 km/h 88% 0 mm
10:40 2.1 °C 0.2 °C 1010.7 hPa SSW 8 km/h 22.5 km/h 87% 0 mm
10:45 2.2 °C 0.2 °C 1010.7 hPa SW 8 km/h 19.3 km/h 87% 0 mm
10:49 2.2 °C 0.2 °C 1010.7 hPa SSW 9.7 km/h 22.5 km/h 87% 0 mm
10:54 2.2 °C 0.2 °C 1010.7 hPa SSW 9.7 km/h 22.5 km/h 87% 0 mm
10:59 2.2 °C 0.3 °C 1010.7 hPa WSW 11.3 km/h 19.3 km/h 87% 0 mm
11:04 2.3 °C 0.3 °C 1010.7 hPa SW 6.4 km/h 20.9 km/h 87% 0.25 mm
11:09 2.3 °C 0.3 °C 1010.7 hPa SW 9.7 km/h 17.7 km/h 87% 0.25 mm
11:14 2.3 °C 0.2 °C 1010.7 hPa South 8 km/h 12.9 km/h 86% 0.51 mm
11:19 2.3 °C 0.2 °C 1010.4 hPa SSW 3.2 km/h 12.9 km/h 86% 0.51 mm
11:24 2.3 °C 0.2 °C 1010.4 hPa SSW 8 km/h 20.9 km/h 86% 0.51 mm
11:29 2.4 °C 0.3 °C 1010.4 hPa SSW 9.7 km/h 20.9 km/h 86% 0.51 mm
11:34 2.4 °C 0.3 °C 1010 hPa SW 8 km/h 16.1 km/h 86% 0.51 mm
11:39 2.5 °C 0.4 °C 1010 hPa SW 6.4 km/h 20.9 km/h 86% 0.51 mm
11:45 2.6 °C 0.4 °C 1010 hPa SW 9.7 km/h 14.5 km/h 86% 0.51 mm
11:50 2.6 °C 0.5 °C 1010 hPa SSW 25.7 km/h 27.4 km/h 86% 0.51 mm
11:54 2.6 °C 0.4 °C 1009.7 hPa SSW 11.3 km/h 27.4 km/h 86% 0.76 mm
11:59 2.6 °C 0.4 °C 1009.7 hPa SSW 9.7 km/h 27.4 km/h 86% 0.76 mm
12:04 2.5 °C 0.2 °C 1009.4 hPa SSW 8 km/h 17.7 km/h 85% 0.51 mm
12:09 2.5 °C 0.4 °C 1009.4 hPa SW 8 km/h 17.7 km/h 86% 0.51 mm
12:15 2.4 °C 0.2 °C 1009.4 hPa SW 6.4 km/h 14.5 km/h 85% 0.25 mm
12:19 2.4 °C 0.2 °C 1009 hPa WSW 3.2 km/h 14.5 km/h 85% 0.25 mm
12:24 2.4 °C 0.1 °C 1009 hPa SW 8 km/h 11.3 km/h 85% 0.25 mm
12:29 2.3 °C 0.1 °C 1009 hPa SW 6.4 km/h 16.1 km/h 85% 0.25 mm
12:34 2.4 °C 0.1 °C 1009 hPa WSW 8 km/h 12.9 km/h 85% 0.25 mm
12:39 2.4 °C 0.1 °C 1008.7 hPa SW 1.6 km/h 16.1 km/h 85% 0.25 mm
12:45 2.4 °C 0.1 °C 1008.7 hPa SW 6.4 km/h 16.1 km/h 85% 0.51 mm
12:49 2.4 °C 0.1 °C 1008.7 hPa SSW 4.8 km/h 9.7 km/h 85% 0.51 mm
12:55 2.4 °C 0.1 °C 1008.7 hPa SW 6.4 km/h 12.9 km/h 85% 0.25 mm
12:59 2.3 °C 0.1 °C 1008.4 hPa SW 6.4 km/h 17.7 km/h 85% 0.25 mm
13:04 2.3 °C 0.2 °C 1008.4 hPa SW 8 km/h 17.7 km/h 86% 0.25 mm
13:09 2.3 °C 0.2 °C 1008.4 hPa SW 6.4 km/h 14.5 km/h 86% 0.25 mm
13:14 2.3 °C 0.2 °C 1008.4 hPa SW 6.4 km/h 14.5 km/h 86% 0.51 mm
13:19 2.2 °C 0.1 °C 1008.4 hPa SW 9.7 km/h 14.5 km/h 86% 0.51 mm
13:24 2.1 °C 0 °C 1008 hPa SW 6.4 km/h 11.3 km/h 86% 0.51 mm
13:29 2.1 °C 0.1 °C 1008 hPa SW 4.8 km/h 11.3 km/h 87% 0.51 mm
13:34 2 °C 0.1 °C 1008 hPa SW 4.8 km/h 11.3 km/h 87% 0.76 mm
13:39 2 °C 0.1 °C 1008 hPa South 8 km/h 12.9 km/h 87% 0.76 mm
13:44 2 °C 0.1 °C 1007.7 hPa SW 8 km/h 14.5 km/h 87% 0.51 mm
13:49 2 °C 0.1 °C 1007.7 hPa SSW 9.7 km/h 14.5 km/h 87% 0.51 mm
13:55 2 °C 0.2 °C 1007.7 hPa WNW 6.4 km/h 11.3 km/h 88% 0.51 mm
13:59 2.1 °C 0.3 °C 1007.7 hPa SW 14.5 km/h 16.1 km/h 88% 0.76 mm
14:04 2.1 °C 0.3 °C 1007.7 hPa SSW 8 km/h 19.3 km/h 88% 0.76 mm
14:09 2 °C 0.2 °C 1007.3 hPa SSW 8 km/h 19.3 km/h 88% 0.76 mm
14:14 2.1 °C 0.3 °C 1007.3 hPa SW 6.4 km/h 14.5 km/h 88% 0.51 mm
14:20 2.1 °C 0.3 °C 1007.3 hPa SW 6.4 km/h 14.5 km/h 88% 0.51 mm
14:25 2.1 °C 0.3 °C 1007.3 hPa SW 6.4 km/h 16.1 km/h 88% 0.76 mm
14:30 2.1 °C 0.3 °C 1007.3 hPa SW 6.4 km/h 16.1 km/h 88% 0.51 mm
14:34 2 °C 0.2 °C 1007.3 hPa SSW 8 km/h 17.7 km/h 88% 0.51 mm
14:39 2.1 °C 0.3 °C 1007.3 hPa SSW 6.4 km/h 9.7 km/h 88% 0.51 mm
14:44 2.1 °C 0.3 °C 1007.3 hPa SSW 6.4 km/h 12.9 km/h 88% 0.76 mm
14:49 2 °C 0.2 °C 1007 hPa SW 6.4 km/h 14.5 km/h 88% 0.76 mm
14:54 1.9 °C 0.2 °C 1007 hPa SW 6.4 km/h 16.1 km/h 88% 0.76 mm
14:59 1.9 °C 0.2 °C 1007 hPa SW 3.2 km/h 14.5 km/h 88% 0.51 mm
15:04 1.9 °C 0.2 °C 1007 hPa WSW 6.4 km/h 12.9 km/h 88% 0.51 mm
15:09 1.9 °C 0.3 °C 1007 hPa SW 4.8 km/h 12.9 km/h 89% 0.51 mm
15:14 1.9 °C 0.3 °C 1007 hPa SW 6.4 km/h 14.5 km/h 89% 0.51 mm
15:19 1.9 °C 0.1 °C 1007 hPa SW 6.4 km/h 14.5 km/h 88% 0.76 mm
15:25 1.8 °C 0.1 °C 1007 hPa Calm   12.9 km/h 88% 0.51 mm
15:30 1.8 °C 0.2 °C 1007 hPa SW 6.4 km/h 16.1 km/h 89% 0.51 mm
15:39 1.7 °C 0.1 °C 1007 hPa SW 6.4 km/h 16.1 km/h 89% 0.76 mm
15:44 1.7 °C 0.1 °C 1007 hPa SW 3.2 km/h 12.9 km/h 89% 0.51 mm
15:49 1.7 °C 0.1 °C 1007 hPa SW 1.6 km/h 6.4 km/h 89% 0.51 mm
15:55 1.7 °C 0.1 °C 1007 hPa SW 3.2 km/h 8 km/h 89% 0.51 mm
16:00 1.7 °C 0.1 °C 1007 hPa SW 3.2 km/h 9.7 km/h 89% 0.51 mm
16:09 1.6 °C 0 °C 1007.3 hPa West 4.8 km/h 9.7 km/h 89% 0.76 mm
16:14 1.6 °C 0 °C 1007.3 hPa WSW 4.8 km/h 9.7 km/h 89% 0.76 mm
16:19 1.6 °C -0.1 °C 1007.3 hPa WSW 4.8 km/h 8 km/h 89% 0.51 mm
16:24 1.6 °C -0.1 °C 1007.3 hPa WSW 3.2 km/h 8 km/h 89% 0.51 mm
16:29 1.5 °C 0.1 °C 1007.3 hPa WSW 3.2 km/h 11.3 km/h 90% 0.51 mm
16:34 1.5 °C -0.1 °C 1007.3 hPa WSW 6.4 km/h 11.3 km/h 89% 0.25 mm
16:40 1.4 °C -0.2 °C 1007.3 hPa SW 6.4 km/h 12.9 km/h 89% 0.25 mm
16:44 1.4 °C -0.2 °C 1007 hPa SW 4.8 km/h 12.9 km/h 89% 0.25 mm
16:49 1.4 °C -0.1 °C 1007 hPa WSW 4.8 km/h 9.7 km/h 90% 0.25 mm
16:54 1.4 °C -0.1 °C 1007 hPa WSW 4.8 km/h 8 km/h 90% 0.25 mm
16:59 1.4 °C -0.1 °C 1007 hPa SW 6.4 km/h 8 km/h 90% 0.25 mm
17:04 1.3 °C -0.1 °C 1007 hPa SW 4.8 km/h 6.4 km/h 90% 0 mm
17:09 1.3 °C -0.1 °C 1007 hPa Calm   4.8 km/h 90% 0 mm
17:14 1.3 °C -0.1 °C 1007 hPa Calm     90% 0 mm
17:19 1.3 °C -0.1 °C 1007 hPa SW 1.6 km/h 6.4 km/h 90% 0 mm
17:24 1.4 °C -0.1 °C 1007 hPa SW 1.6 km/h 6.4 km/h 90% 0 mm
17:29 1.4 °C -0.1 °C 1007 hPa SW 3.2 km/h 8 km/h 90% 0 mm
17:34 1.4 °C -0.1 °C 1007 hPa SW 1.6 km/h 8 km/h 90% 0 mm
17:39 1.4 °C 0 °C 1006.7 hPa SW 1.6 km/h 6.4 km/h 90% 0 mm
17:44 1.4 °C 0 °C 1006.7 hPa SW 3.2 km/h 9.7 km/h 90% 0 mm
17:45 1.4 °C 0 °C 1006.7 hPa SW 3.2 km/h 9.7 km/h 90% 0 mm
17:49 1.4 °C 0 °C 1006.7 hPa SW 4.8 km/h 9.7 km/h 90% 0 mm
17:54 1.5 °C 0.1 °C 1006.7 hPa WSW 6.4 km/h 11.3 km/h 90% 0 mm
17:59 1.5 °C 0.1 °C 1006.7 hPa WSW 3.2 km/h 8 km/h 90% 0 mm
18:04 1.5 °C 0.1 °C 1006.7 hPa SW 8 km/h 11.3 km/h 90% 0.25 mm
18:09 1.5 °C 0.1 °C 1006.7 hPa WSW 9.7 km/h 16.1 km/h 90% 0.25 mm
18:14 1.4 °C 0 °C 1006.7 hPa SW 11.3 km/h 19.3 km/h 90% 0.25 mm
18:19 1.4 °C 0 °C 1006.7 hPa West 6.4 km/h 16.1 km/h 90% 0.25 mm
18:24 1.4 °C -0.1 °C 1006.7 hPa SW 8 km/h 16.1 km/h 90% 0.25 mm
18:29 1.3 °C -0.1 °C 1006.7 hPa WSW 4.8 km/h 11.3 km/h 90% 0.25 mm
18:34 1.4 °C -0.1 °C 1006.7 hPa WSW 8 km/h 14.5 km/h 90% 0.25 mm
18:39 1.3 °C -0.1 °C 1007 hPa WSW 6.4 km/h 14.5 km/h 90% 0.25 mm
18:44 1.3 °C -0.1 °C 1007 hPa WSW 6.4 km/h 14.5 km/h 90% 0.25 mm
18:49 1.3 °C -0.1 °C 1007 hPa WSW 4.8 km/h 16.1 km/h 90% 0.25 mm
18:54 1.3 °C -0.1 °C 1007 hPa WSW 6.4 km/h 16.1 km/h 90% 0.25 mm
18:59 1.3 °C -0.2 °C 1006.7 hPa WSW 6.4 km/h 16.1 km/h 90% 0.25 mm
19:04 1.3 °C -0.2 °C 1006.7 hPa WNW 4.8 km/h 11.3 km/h 90% 0 mm
19:09 1.2 °C -0.3 °C 1006.7 hPa WSW 9.7 km/h 12.9 km/h 90% 0 mm
19:14 1.1 °C -0.5 °C 1006.7 hPa WSW 8 km/h 12.9 km/h 89% 0 mm
19:19 1.1 °C -0.6 °C 1006.7 hPa West 8 km/h 12.9 km/h 89% 0 mm
19:24 1 °C -0.6 °C 1006.7 hPa WSW 3.2 km/h 12.9 km/h 89% 0 mm
19:29 1 °C -0.6 °C 1006.7 hPa WSW 6.4 km/h 12.9 km/h 89% 0 mm
19:34 1 °C -0.6 °C 1006.7 hPa WSW 6.4 km/h 11.3 km/h 89% 0 mm
19:39 1.1 °C -0.4 °C 1006.7 hPa WSW 6.4 km/h 11.3 km/h 90% 0 mm
19:44 1 °C -0.4 °C 1006.3 hPa WSW 6.4 km/h 11.3 km/h 90% 0 mm
19:49 1.1 °C -0.4 °C 1006.7 hPa WSW 4.8 km/h 11.3 km/h 90% 0 mm
19:54 1 °C -0.4 °C 1006.7 hPa WSW 6.4 km/h 12.9 km/h 90% 0 mm
19:59 1 °C -0.4 °C 1006.7 hPa WSW 8 km/h 14.5 km/h 90% 0 mm
20:04 1 °C -0.4 °C 1006.7 hPa WSW 6.4 km/h 16.1 km/h 90% 0 mm
20:09 1 °C -0.4 °C 1006.7 hPa WSW 8 km/h 16.1 km/h 90% 0 mm
20:14 1 °C -0.4 °C 1006.7 hPa WSW 8 km/h 20.9 km/h 90% 0 mm
20:19 0.9 °C -0.5 °C 1006.7 hPa WSW 8 km/h 20.9 km/h 90% 0 mm
20:24 0.9 °C -0.5 °C 1006.7 hPa WSW 6.4 km/h 19.3 km/h 90% 0 mm
20:29 0.9 °C -0.6 °C 1006.7 hPa WSW 8 km/h 16.1 km/h 90% 0 mm
20:34 0.8 °C -0.6 °C 1006.7 hPa WSW 9.7 km/h 17.7 km/h 90% 0 mm
20:39 0.8 °C -0.6 °C 1006.7 hPa WSW 9.7 km/h 19.3 km/h 90% 0 mm
20:44 0.8 °C -0.6 °C 1006.7 hPa SSW 9.7 km/h 17.7 km/h 90% 0 mm
20:49 0.8 °C -0.7 °C 1006.7 hPa West 3.2 km/h 20.9 km/h 90% 0 mm
20:54 0.7 °C -0.7 °C 1006.7 hPa WSW 12.9 km/h 17.7 km/h 90% 0 mm
20:59 0.7 °C -0.7 °C 1006.7 hPa West 8 km/h 17.7 km/h 90% 0 mm
21:04 0.7 °C -0.8 °C 1006.3 hPa WSW 8 km/h 17.7 km/h 90% 0 mm
21:09 0.7 °C -0.8 °C 1006.7 hPa WSW 8 km/h 16.1 km/h 90% 0 mm
21:14 0.7 °C -0.8 °C 1006.7 hPa WSW 8 km/h 14.5 km/h 90% 0 mm
21:19 0.7 °C -0.8 °C 1006.7 hPa WSW 6.4 km/h 14.5 km/h 90% 0 mm
21:24 0.7 °C -0.8 °C 1007 hPa West 8 km/h 19.3 km/h 90% 0 mm
21:29 0.2 °C -1.4 °C 1007.3 hPa WNW 9.7 km/h 20.9 km/h 89% 0 mm
21:34 -0.6 °C -2.2 °C 1007.3 hPa NNW 11.3 km/h 20.9 km/h 89% 0 mm
21:39 -1.1 °C -2.6 °C 1007.3 hPa WNW 9.7 km/h 22.5 km/h 89% 0 mm
21:44 -1.4 °C -3 °C 1007.3 hPa NNW 6.4 km/h 20.9 km/h 89% 0 mm
21:49 -1.8 °C -3.4 °C 1007.3 hPa NW 4.8 km/h 16.1 km/h 89% 0 mm
21:54 -2.1 °C -3.7 °C 1007.3 hPa NNW 6.4 km/h 14.5 km/h 89% 0 mm
21:59 -2.4 °C -4.2 °C 1007.7 hPa WNW 8 km/h 22.5 km/h 88% 0 mm
22:04 -2.8 °C -4.5 °C 1007.7 hPa NW 22.5 km/h 25.7 km/h 88% 0 mm
22:09 -3.1 °C -4.6 °C 1007.7 hPa NNW 11.3 km/h 22.5 km/h 89% 0 mm
22:14 -3.2 °C -4.9 °C 1007.7 hPa NNW 11.3 km/h 22.5 km/h 88% 0 mm
22:19 -3.3 °C -5.1 °C 1008 hPa NNW 9.7 km/h 20.9 km/h 88% 0 mm
22:24 -3.4 °C -5 °C 1008 hPa NNW 8 km/h 24.1 km/h 89% 0 mm
22:29 -3.7 °C -5.4 °C 1008.4 hPa NNW 9.7 km/h 24.1 km/h 88% 0 mm
22:34 -4 °C -5.7 °C 1008.4 hPa NW 11.3 km/h 24.1 km/h 88% 0 mm
22:39 -4.3 °C -5.9 °C 1008.7 hPa North 4.8 km/h 30.6 km/h 88% 0 mm
22:44 -4.6 °C -6.2 °C 1008.7 hPa North 12.9 km/h 27.4 km/h 88% 0 mm
22:49 -4.7 °C -6.3 °C 1009 hPa NNW 14.5 km/h 17.7 km/h 88% 0 mm
22:54 -5 °C -6.7 °C 1009 hPa NNW 8 km/h 35.4 km/h 88% 0 mm
22:59 -5.3 °C -7.2 °C 1009.4 hPa NNW 25.7 km/h 25.7 km/h 87% 0 mm
23:04 -5.5 °C -7.2 °C 1009.7 hPa North 11.3 km/h 25.7 km/h 88% 0 mm
23:09 -5.6 °C -7.2 °C 1009.7 hPa North 11.3 km/h 12.9 km/h 88% 0 mm
23:14 -5.7 °C -7.6 °C 1009.7 hPa NW 8 km/h 19.3 km/h 87% 0 mm
23:19 -5.8 °C -7.5 °C 1009.7 hPa NNW 9.7 km/h 20.9 km/h 88% 0 mm
23:24 -5.9 °C -7.8 °C 1009.7 hPa NNW 11.3 km/h 20.9 km/h 87% 0 mm
23:29 -6.1 °C -7.7 °C 1009.7 hPa NNW 9.7 km/h 24.1 km/h 88% 0 mm
23:34 -6.1 °C -7.8 °C 1009.7 hPa NW 9.7 km/h 24.1 km/h 88% 0 mm
23:39 -6.2 °C -8.1 °C 1010 hPa NNW 11.3 km/h 27.4 km/h 87% 0 mm
23:44 -6.3 °C -8.1 °C 1010 hPa North 8 km/h 22.5 km/h 87% 0 mm
23:49 -6.3 °C -8 °C 1010 hPa NNW 9.7 km/h 22.5 km/h 88% 0 mm
23:54 -6.4 °C -8.1 °C 1010.4 hPa NNW 8 km/h 19.3 km/h 88% 0 mm
23:59 -6.4 °C -8.1 °C 1010.7 hPa NW 9.7 km/h 22.5 km/h 88% 0 mm
Buffalo, New York, USA
Compliments of Weather Underground - 2.5 mb